sensor_id;sensor_type;location;lat;lon;timestamp;pressure;altitude;pressure_sealevel;temperature;humidity
10060;BME280;5069;49.306;8.636;2023-04-28T00:02:52;100293.63;;;14.56;54.82
10060;BME280;5069;49.306;8.636;2023-04-28T00:05:54;100292.69;;;14.57;54.63
10060;BME280;5069;49.306;8.636;2023-04-28T00:08:56;100288.06;;;14.60;55.52
10060;BME280;5069;49.306;8.636;2023-04-28T00:11:57;100285.50;;;14.59;57.24
10060;BME280;5069;49.306;8.636;2023-04-28T00:15:00;100283.94;;;14.55;58.30
10060;BME280;5069;49.306;8.636;2023-04-28T00:18:01;100275.06;;;14.56;60.72
10060;BME280;5069;49.306;8.636;2023-04-28T00:21:03;100262.72;;;14.55;61.94
10060;BME280;5069;49.306;8.636;2023-04-28T00:24:05;100261.47;;;14.44;63.44
10060;BME280;5069;49.306;8.636;2023-04-28T00:27:06;100268.31;;;14.31;63.22
10060;BME280;5069;49.306;8.636;2023-04-28T00:30:08;100268.00;;;14.20;66.41
10060;BME280;5069;49.306;8.636;2023-04-28T00:33:10;100258.00;;;14.08;69.78
10060;BME280;5069;49.306;8.636;2023-04-28T00:36:11;100258.59;;;13.96;72.62
10060;BME280;5069;49.306;8.636;2023-04-28T00:39:14;100255.34;;;13.91;72.12
10060;BME280;5069;49.306;8.636;2023-04-28T00:42:16;100256.66;;;13.82;74.06
10060;BME280;5069;49.306;8.636;2023-04-28T00:45:17;100242.84;;;13.76;75.97
10060;BME280;5069;49.306;8.636;2023-04-28T00:48:19;100240.19;;;13.76;77.41
10060;BME280;5069;49.306;8.636;2023-04-28T00:51:21;100240.66;;;13.67;77.96
10060;BME280;5069;49.306;8.636;2023-04-28T00:54:22;100232.06;;;13.61;77.93
10060;BME280;5069;49.306;8.636;2023-04-28T00:57:24;100238.94;;;13.65;76.91
10060;BME280;5069;49.306;8.636;2023-04-28T01:00:25;100225.59;;;13.67;76.55
10060;BME280;5069;49.306;8.636;2023-04-28T01:03:27;100214.00;;;13.70;77.24
10060;BME280;5069;49.306;8.636;2023-04-28T01:06:30;100212.84;;;13.75;75.81
10060;BME280;5069;49.306;8.636;2023-04-28T01:09:34;100214.56;;;13.76;74.51
10060;BME280;5069;49.306;8.636;2023-04-28T01:12:36;100207.56;;;13.75;74.58
10060;BME280;5069;49.306;8.636;2023-04-28T01:15:38;100213.72;;;13.76;74.59
10060;BME280;5069;49.306;8.636;2023-04-28T01:18:46;100198.97;;;13.70;73.70
10060;BME280;5069;49.306;8.636;2023-04-28T01:21:49;100182.28;;;13.68;73.41
10060;BME280;5069;49.306;8.636;2023-04-28T01:24:54;100181.38;;;13.69;71.49
10060;BME280;5069;49.306;8.636;2023-04-28T01:27:56;100180.38;;;13.72;71.30
10060;BME280;5069;49.306;8.636;2023-04-28T01:30:58;100178.72;;;13.69;71.96
10060;BME280;5069;49.306;8.636;2023-04-28T01:34:00;100178.78;;;13.68;72.11
10060;BME280;5069;49.306;8.636;2023-04-28T01:37:02;100190.41;;;13.65;71.47
10060;BME280;5069;49.306;8.636;2023-04-28T01:40:04;100195.84;;;13.62;70.40
10060;BME280;5069;49.306;8.636;2023-04-28T01:43:05;100200.50;;;13.57;72.11
10060;BME280;5069;49.306;8.636;2023-04-28T01:46:07;100200.09;;;13.47;74.11
10060;BME280;5069;49.306;8.636;2023-04-28T01:49:08;100204.91;;;13.39;75.83
10060;BME280;5069;49.306;8.636;2023-04-28T01:52:10;100194.31;;;13.39;78.47
10060;BME280;5069;49.306;8.636;2023-04-28T01:55:12;100195.25;;;13.38;78.30
10060;BME280;5069;49.306;8.636;2023-04-28T01:58:13;100189.25;;;13.35;78.77
10060;BME280;5069;49.306;8.636;2023-04-28T02:01:15;100196.47;;;13.31;79.85
10060;BME280;5069;49.306;8.636;2023-04-28T02:04:18;100198.50;;;13.26;80.78
10060;BME280;5069;49.306;8.636;2023-04-28T02:07:19;100203.91;;;13.23;84.65
10060;BME280;5069;49.306;8.636;2023-04-28T02:10:21;100207.66;;;13.19;84.41
10060;BME280;5069;49.306;8.636;2023-04-28T02:13:22;100214.78;;;13.17;89.31
10060;BME280;5069;49.306;8.636;2023-04-28T02:16:24;100203.34;;;13.16;89.09
10060;BME280;5069;49.306;8.636;2023-04-28T02:19:25;100202.63;;;13.13;89.94
10060;BME280;5069;49.306;8.636;2023-04-28T02:22:27;100203.50;;;13.13;91.58
10060;BME280;5069;49.306;8.636;2023-04-28T02:25:28;100192.31;;;13.07;92.25
10060;BME280;5069;49.306;8.636;2023-04-28T02:28:30;100186.16;;;13.06;94.66
10060;BME280;5069;49.306;8.636;2023-04-28T02:31:32;100194.44;;;12.99;96.88
10060;BME280;5069;49.306;8.636;2023-04-28T02:34:34;100194.31;;;12.83;95.43
10060;BME280;5069;49.306;8.636;2023-04-28T02:37:35;100193.44;;;12.82;98.97
10060;BME280;5069;49.306;8.636;2023-04-28T02:40:37;100186.59;;;12.78;100.00
10060;BME280;5069;49.306;8.636;2023-04-28T02:43:38;100175.28;;;12.75;100.00
10060;BME280;5069;49.306;8.636;2023-04-28T02:46:40;100181.84;;;12.66;99.24
10060;BME280;5069;49.306;8.636;2023-04-28T02:49:41;100188.34;;;12.59;99.33
10060;BME280;5069;49.306;8.636;2023-04-28T02:52:43;100185.97;;;12.53;100.00
10060;BME280;5069;49.306;8.636;2023-04-28T02:55:44;100181.19;;;12.61;100.00
10060;BME280;5069;49.306;8.636;2023-04-28T02:58:46;100170.28;;;12.69;100.00
10060;BME280;5069;49.306;8.636;2023-04-28T03:01:48;100166.84;;;12.67;100.00
10060;BME280;5069;49.306;8.636;2023-04-28T03:04:50;100163.22;;;12.69;100.00
10060;BME280;5069;49.306;8.636;2023-04-28T03:07:52;100157.13;;;12.67;100.00
10060;BME280;5069;49.306;8.636;2023-04-28T03:10:54;100151.69;;;12.70;100.00
10060;BME280;5069;49.306;8.636;2023-04-28T03:13:55;100148.00;;;12.74;100.00
10060;BME280;5069;49.306;8.636;2023-04-28T03:16:57;100145.97;;;12.79;100.00
10060;BME280;5069;49.306;8.636;2023-04-28T03:19:59;100136.25;;;12.80;100.00
10060;BME280;5069;49.306;8.636;2023-04-28T03:23:00;100143.41;;;12.78;99.98
10060;BME280;5069;49.306;8.636;2023-04-28T03:26:03;100145.97;;;12.79;100.00
10060;BME280;5069;49.306;8.636;2023-04-28T03:29:04;100149.56;;;12.78;99.68
10060;BME280;5069;49.306;8.636;2023-04-28T03:32:06;100148.84;;;12.75;100.00
10060;BME280;5069;49.306;8.636;2023-04-28T03:35:08;100148.28;;;12.68;100.00
10060;BME280;5069;49.306;8.636;2023-04-28T03:38:10;100148.38;;;12.65;100.00
10060;BME280;5069;49.306;8.636;2023-04-28T03:41:12;100145.47;;;12.71;100.00
10060;BME280;5069;49.306;8.636;2023-04-28T03:44:42;100144.06;;;12.64;100.00
10060;BME280;5069;49.306;8.636;2023-04-28T03:47:44;100132.81;;;12.59;100.00
10060;BME280;5069;49.306;8.636;2023-04-28T03:50:45;100138.59;;;12.49;100.00
10060;BME280;5069;49.306;8.636;2023-04-28T03:53:47;100142.38;;;12.43;100.00
10060;BME280;5069;49.306;8.636;2023-04-28T03:56:49;100147.66;;;12.43;100.00
10060;BME280;5069;49.306;8.636;2023-04-28T03:59:50;100162.47;;;12.47;100.00
10060;BME280;5069;49.306;8.636;2023-04-28T04:02:52;100163.31;;;12.48;100.00
10060;BME280;5069;49.306;8.636;2023-04-28T04:05:54;100170.22;;;12.31;100.00
10060;BME280;5069;49.306;8.636;2023-04-28T04:08:56;100178.13;;;12.31;100.00
10060;BME280;5069;49.306;8.636;2023-04-28T04:11:58;100159.13;;;12.23;100.00
10060;BME280;5069;49.306;8.636;2023-04-28T04:15:01;100159.03;;;12.25;100.00
10060;BME280;5069;49.306;8.636;2023-04-28T04:18:03;100154.88;;;12.19;100.00
10060;BME280;5069;49.306;8.636;2023-04-28T04:21:20;100155.56;;;12.24;100.00
10060;BME280;5069;49.306;8.636;2023-04-28T04:24:24;100155.63;;;12.23;100.00
10060;BME280;5069;49.306;8.636;2023-04-28T04:27:25;100160.84;;;12.24;100.00
10060;BME280;5069;49.306;8.636;2023-04-28T04:30:27;100158.38;;;12.20;100.00
10060;BME280;5069;49.306;8.636;2023-04-28T04:33:29;100152.84;;;12.26;100.00
10060;BME280;5069;49.306;8.636;2023-04-28T04:36:30;100145.06;;;12.23;100.00
10060;BME280;5069;49.306;8.636;2023-04-28T04:39:33;100139.78;;;12.23;100.00
10060;BME280;5069;49.306;8.636;2023-04-28T04:42:35;100137.13;;;12.23;100.00
10060;BME280;5069;49.306;8.636;2023-04-28T04:45:39;100137.91;;;12.25;100.00
10060;BME280;5069;49.306;8.636;2023-04-28T04:48:41;100128.13;;;12.27;100.00
10060;BME280;5069;49.306;8.636;2023-04-28T04:51:43;100126.28;;;12.29;100.00
10060;BME280;5069;49.306;8.636;2023-04-28T04:54:45;100120.78;;;12.33;100.00
10060;BME280;5069;49.306;8.636;2023-04-28T04:57:48;100125.84;;;12.38;100.00
10060;BME280;5069;49.306;8.636;2023-04-28T05:01:04;100124.06;;;12.38;100.00
10060;BME280;5069;49.306;8.636;2023-04-28T05:04:06;100121.38;;;12.40;100.00
10060;BME280;5069;49.306;8.636;2023-04-28T05:07:09;100122.03;;;12.45;100.00
10060;BME280;5069;49.306;8.636;2023-04-28T05:10:13;100116.09;;;12.40;100.00
10060;BME280;5069;49.306;8.636;2023-04-28T05:13:16;100126.59;;;12.41;100.00
10060;BME280;5069;49.306;8.636;2023-04-28T05:16:18;100125.81;;;12.39;100.00
10060;BME280;5069;49.306;8.636;2023-04-28T05:19:36;100128.28;;;12.42;100.00
10060;BME280;5069;49.306;8.636;2023-04-28T05:22:37;100126.22;;;12.49;100.00
10060;BME280;5069;49.306;8.636;2023-04-28T05:25:39;100122.66;;;12.50;100.00
10060;BME280;5069;49.306;8.636;2023-04-28T05:28:41;100131.50;;;12.49;100.00
10060;BME280;5069;49.306;8.636;2023-04-28T05:31:42;100130.53;;;12.52;100.00
10060;BME280;5069;49.306;8.636;2023-04-28T05:34:44;100123.47;;;12.52;100.00
10060;BME280;5069;49.306;8.636;2023-04-28T05:37:46;100124.16;;;12.56;100.00
10060;BME280;5069;49.306;8.636;2023-04-28T05:40:47;100130.25;;;12.58;100.00
10060;BME280;5069;49.306;8.636;2023-04-28T05:43:50;100125.94;;;12.55;100.00
10060;BME280;5069;49.306;8.636;2023-04-28T05:46:52;100139.06;;;12.58;100.00
10060;BME280;5069;49.306;8.636;2023-04-28T05:49:58;100130.84;;;12.64;100.00
10060;BME280;5069;49.306;8.636;2023-04-28T05:53:00;100119.41;;;12.64;100.00
10060;BME280;5069;49.306;8.636;2023-04-28T05:56:04;100127.50;;;12.59;100.00
10060;BME280;5069;49.306;8.636;2023-04-28T05:59:06;100126.09;;;12.52;100.00
10060;BME280;5069;49.306;8.636;2023-04-28T06:02:09;100124.38;;;12.51;100.00
10060;BME280;5069;49.306;8.636;2023-04-28T06:05:11;100133.50;;;12.44;100.00
10060;BME280;5069;49.306;8.636;2023-04-28T06:08:13;100125.66;;;12.42;100.00
10060;BME280;5069;49.306;8.636;2023-04-28T06:11:14;100121.38;;;12.40;100.00
10060;BME280;5069;49.306;8.636;2023-04-28T06:14:16;100107.13;;;12.42;100.00
10060;BME280;5069;49.306;8.636;2023-04-28T06:17:18;100122.50;;;12.34;100.00
10060;BME280;5069;49.306;8.636;2023-04-28T06:20:19;100137.22;;;12.40;100.00
10060;BME280;5069;49.306;8.636;2023-04-28T06:23:21;100125.59;;;12.44;100.00
10060;BME280;5069;49.306;8.636;2023-04-28T06:26:24;100137.22;;;12.40;100.00
10060;BME280;5069;49.306;8.636;2023-04-28T06:29:25;100137.06;;;12.43;100.00
10060;BME280;5069;49.306;8.636;2023-04-28T06:32:28;100143.44;;;12.39;100.00
10060;BME280;5069;49.306;8.636;2023-04-28T06:35:29;100143.38;;;12.40;100.00
10060;BME280;5069;49.306;8.636;2023-04-28T06:38:31;100141.97;;;12.52;100.00
10060;BME280;5069;49.306;8.636;2023-04-28T06:41:32;100151.19;;;12.62;100.00
10060;BME280;5069;49.306;8.636;2023-04-28T06:44:36;100148.13;;;12.71;100.00
10060;BME280;5069;49.306;8.636;2023-04-28T06:47:37;100148.63;;;12.79;100.00
10060;BME280;5069;49.306;8.636;2023-04-28T06:50:42;100143.13;;;12.84;100.00
10060;BME280;5069;49.306;8.636;2023-04-28T06:53:44;100140.25;;;12.89;100.00
10060;BME280;5069;49.306;8.636;2023-04-28T06:56:46;100140.41;;;12.86;100.00
10060;BME280;5069;49.306;8.636;2023-04-28T06:59:47;100141.97;;;12.90;100.00
10060;BME280;5069;49.306;8.636;2023-04-28T07:02:49;100146.28;;;12.92;100.00
10060;BME280;5069;49.306;8.636;2023-04-28T07:05:51;100140.53;;;12.82;100.00
10060;BME280;5069;49.306;8.636;2023-04-28T07:08:52;100133.03;;;12.73;100.00
10060;BME280;5069;49.306;8.636;2023-04-28T07:11:54;100133.59;;;12.61;100.00
10060;BME280;5069;49.306;8.636;2023-04-28T07:14:56;100129.19;;;12.62;100.00
10060;BME280;5069;49.306;8.636;2023-04-28T07:17:57;100122.50;;;12.53;100.00
10060;BME280;5069;49.306;8.636;2023-04-28T07:20:59;100115.94;;;12.43;100.00
10060;BME280;5069;49.306;8.636;2023-04-28T07:24:00;100122.28;;;12.39;100.00
10060;BME280;5069;49.306;8.636;2023-04-28T07:27:01;100141.44;;;12.44;100.00
10060;BME280;5069;49.306;8.636;2023-04-28T07:30:04;100138.53;;;12.50;100.00
10060;BME280;5069;49.306;8.636;2023-04-28T07:33:26;100150.75;;;12.53;100.00
10060;BME280;5069;49.306;8.636;2023-04-28T07:36:28;100143.81;;;12.50;100.00
10060;BME280;5069;49.306;8.636;2023-04-28T07:39:33;100149.09;;;12.50;100.00
10060;BME280;5069;49.306;8.636;2023-04-28T07:42:35;100147.09;;;12.55;100.00
10060;BME280;5069;49.306;8.636;2023-04-28T07:45:38;100158.09;;;12.65;100.00
10060;BME280;5069;49.306;8.636;2023-04-28T07:48:40;100160.69;;;12.66;100.00
10060;BME280;5069;49.306;8.636;2023-04-28T07:51:41;100156.69;;;12.58;100.00
10060;BME280;5069;49.306;8.636;2023-04-28T07:54:43;100145.66;;;12.48;100.00
10060;BME280;5069;49.306;8.636;2023-04-28T07:57:44;100142.63;;;12.37;100.00
10060;BME280;5069;49.306;8.636;2023-04-28T08:00:46;100133.94;;;12.35;100.00
10060;BME280;5069;49.306;8.636;2023-04-28T08:03:47;100151.50;;;12.36;100.00
10060;BME280;5069;49.306;8.636;2023-04-28T08:06:49;100148.09;;;12.34;100.00
10060;BME280;5069;49.306;8.636;2023-04-28T08:09:51;100138.56;;;12.30;100.00
10060;BME280;5069;49.306;8.636;2023-04-28T08:12:54;100143.00;;;12.29;100.00
10060;BME280;5069;49.306;8.636;2023-04-28T08:15:55;100142.25;;;12.26;100.00
10060;BME280;5069;49.306;8.636;2023-04-28T08:18:57;100134.22;;;12.29;100.00
10060;BME280;5069;49.306;8.636;2023-04-28T08:22:00;100138.75;;;12.25;100.00
10060;BME280;5069;49.306;8.636;2023-04-28T08:25:06;100127.06;;;12.31;100.00
10060;BME280;5069;49.306;8.636;2023-04-28T08:28:07;100125.06;;;12.36;100.00
10060;BME280;5069;49.306;8.636;2023-04-28T08:31:09;100122.22;;;12.40;100.00
10060;BME280;5069;49.306;8.636;2023-04-28T08:34:10;100110.00;;;12.38;100.00
10060;BME280;5069;49.306;8.636;2023-04-28T08:37:13;100120.03;;;12.50;100.00
10060;BME280;5069;49.306;8.636;2023-04-28T08:40:15;100127.50;;;12.59;100.00
10060;BME280;5069;49.306;8.636;2023-04-28T08:43:16;100129.81;;;12.67;100.00
10060;BME280;5069;49.306;8.636;2023-04-28T08:46:20;100138.97;;;12.78;100.00
10060;BME280;5069;49.306;8.636;2023-04-28T08:49:28;100139.69;;;12.82;100.00
10060;BME280;5069;49.306;8.636;2023-04-28T08:52:34;100142.13;;;12.87;100.00
10060;BME280;5069;49.306;8.636;2023-04-28T08:55:35;100139.09;;;12.94;100.00
10060;BME280;5069;49.306;8.636;2023-04-28T08:58:38;100125.34;;;13.05;100.00
10060;BME280;5069;49.306;8.636;2023-04-28T09:01:40;100140.69;;;13.17;100.00
10060;BME280;5069;49.306;8.636;2023-04-28T09:04:41;100127.66;;;13.31;100.00
10060;BME280;5069;49.306;8.636;2023-04-28T09:07:46;100139.56;;;13.40;100.00
10060;BME280;5069;49.306;8.636;2023-04-28T09:11:06;100128.59;;;13.47;100.00
10060;BME280;5069;49.306;8.636;2023-04-28T09:14:11;100137.97;;;13.54;100.00
10060;BME280;5069;49.306;8.636;2023-04-28T09:17:14;100137.19;;;13.52;100.00
10060;BME280;5069;49.306;8.636;2023-04-28T09:20:24;100140.16;;;13.63;100.00
10060;BME280;5069;49.306;8.636;2023-04-28T09:23:26;100144.44;;;13.66;100.00
10060;BME280;5069;49.306;8.636;2023-04-28T09:26:47;100141.69;;;13.68;100.00
10060;BME280;5069;49.306;8.636;2023-04-28T09:29:51;100143.97;;;13.75;100.00
10060;BME280;5069;49.306;8.636;2023-04-28T09:33:05;100146.38;;;13.80;100.00
10060;BME280;5069;49.306;8.636;2023-04-28T09:36:11;100135.41;;;13.87;100.00
10060;BME280;5069;49.306;8.636;2023-04-28T09:39:13;100131.88;;;14.04;100.00
10060;BME280;5069;49.306;8.636;2023-04-28T09:42:40;100142.97;;;14.12;100.00
10060;BME280;5069;49.306;8.636;2023-04-28T09:45:42;100133.25;;;14.28;100.00
10060;BME280;5069;49.306;8.636;2023-04-28T09:48:44;100135.13;;;14.43;100.00
10060;BME280;5069;49.306;8.636;2023-04-28T09:51:46;100127.16;;;14.43;100.00
10060;BME280;5069;49.306;8.636;2023-04-28T09:54:49;100124.63;;;14.58;100.00
10060;BME280;5069;49.306;8.636;2023-04-28T09:57:53;100125.31;;;14.77;100.00
10060;BME280;5069;49.306;8.636;2023-04-28T10:00:56;100130.47;;;14.80;100.00
10060;BME280;5069;49.306;8.636;2023-04-28T10:03:59;100134.66;;;14.84;100.00
10060;BME280;5069;49.306;8.636;2023-04-28T10:07:03;100129.09;;;14.88;100.00
10060;BME280;5069;49.306;8.636;2023-04-28T10:10:06;100129.28;;;15.01;100.00
10060;BME280;5069;49.306;8.636;2023-04-28T10:13:08;100121.31;;;15.01;100.00
10060;BME280;5069;49.306;8.636;2023-04-28T10:16:10;100128.88;;;15.09;100.00
10060;BME280;5069;49.306;8.636;2023-04-28T10:19:12;100128.41;;;15.16;100.00
10060;BME280;5069;49.306;8.636;2023-04-28T10:25:56;100143.13;;;15.22;100.00
10060;BME280;5069;49.306;8.636;2023-04-28T10:28:59;100139.81;;;15.18;100.00
10060;BME280;5069;49.306;8.636;2023-04-28T10:32:23;100128.53;;;15.15;100.00
10060;BME280;5069;49.306;8.636;2023-04-28T10:38:30;100133.72;;;15.16;100.00
10060;BME280;5069;49.306;8.636;2023-04-28T10:41:32;100140.22;;;15.11;100.00
10060;BME280;5069;49.306;8.636;2023-04-28T10:48:00;100138.16;;;15.16;100.00
10060;BME280;5069;49.306;8.636;2023-04-28T10:54:13;100130.38;;;15.28;100.00
10060;BME280;5069;49.306;8.636;2023-04-28T10:57:16;100117.97;;;15.29;100.00
10060;BME280;5069;49.306;8.636;2023-04-28T11:00:30;100111.50;;;15.33;100.00
10060;BME280;5069;49.306;8.636;2023-04-28T11:07:09;100110.31;;;15.39;100.00
10060;BME280;5069;49.306;8.636;2023-04-28T11:10:12;100118.13;;;15.42;100.00
10060;BME280;5069;49.306;8.636;2023-04-28T11:13:27;100108.63;;;15.53;100.00
10060;BME280;5069;49.306;8.636;2023-04-28T11:16:32;100101.03;;;15.61;100.00
10060;BME280;5069;49.306;8.636;2023-04-28T11:19:36;100103.81;;;15.74;100.00
10060;BME280;5069;49.306;8.636;2023-04-28T11:22:39;100112.59;;;15.90;100.00
10060;BME280;5069;49.306;8.636;2023-04-28T11:25:54;100103.88;;;15.88;100.00
10060;BME280;5069;49.306;8.636;2023-04-28T11:28:56;100106.34;;;15.91;100.00
10060;BME280;5069;49.306;8.636;2023-04-28T11:31:58;100111.13;;;16.00;100.00
10060;BME280;5069;49.306;8.636;2023-04-28T11:35:00;100105.97;;;15.97;100.00
10060;BME280;5069;49.306;8.636;2023-04-28T11:38:02;100099.41;;;16.03;100.00
10060;BME280;5069;49.306;8.636;2023-04-28T11:41:06;100096.47;;;16.07;100.00
10060;BME280;5069;49.306;8.636;2023-04-28T11:44:28;100109.47;;;16.12;100.00
10060;BME280;5069;49.306;8.636;2023-04-28T11:47:31;100090.88;;;16.12;100.00
10060;BME280;5069;49.306;8.636;2023-04-28T11:50:37;100089.34;;;16.08;100.00
10060;BME280;5069;49.306;8.636;2023-04-28T11:53:45;100095.38;;;16.11;100.00
10060;BME280;5069;49.306;8.636;2023-04-28T11:56:46;100092.50;;;16.15;100.00
10060;BME280;5069;49.306;8.636;2023-04-28T11:59:49;100096.88;;;16.16;100.00
10060;BME280;5069;49.306;8.636;2023-04-28T12:02:51;100094.22;;;16.16;100.00
10060;BME280;5069;49.306;8.636;2023-04-28T12:05:53;100096.97;;;16.14;100.00
10060;BME280;5069;49.306;8.636;2023-04-28T12:08:55;100097.81;;;16.15;100.00
10060;BME280;5069;49.306;8.636;2023-04-28T12:12:02;100091.56;;;16.16;100.00
10060;BME280;5069;49.306;8.636;2023-04-28T12:15:05;100091.28;;;16.20;100.00
10060;BME280;5069;49.306;8.636;2023-04-28T12:18:09;100097.44;;;16.21;100.00
10060;BME280;5069;49.306;8.636;2023-04-28T12:21:20;100103.25;;;16.27;100.00
10060;BME280;5069;49.306;8.636;2023-04-28T12:24:21;100115.03;;;16.37;100.00
10060;BME280;5069;49.306;8.636;2023-04-28T12:27:24;100109.31;;;16.43;100.00
10060;BME280;5069;49.306;8.636;2023-04-28T12:30:27;100113.03;;;16.55;100.00
10060;BME280;5069;49.306;8.636;2023-04-28T12:33:29;100111.44;;;16.67;100.00
10060;BME280;5069;49.306;8.636;2023-04-28T12:36:31;100106.59;;;16.73;100.00
10060;BME280;5069;49.306;8.636;2023-04-28T12:39:34;100106.19;;;16.79;100.00
10060;BME280;5069;49.306;8.636;2023-04-28T12:42:41;100102.56;;;16.80;100.00
10060;BME280;5069;49.306;8.636;2023-04-28T12:45:42;100097.44;;;16.91;100.00
10060;BME280;5069;49.306;8.636;2023-04-28T12:48:44;100106.94;;;16.96;100.00
10060;BME280;5069;49.306;8.636;2023-04-28T12:51:45;100093.25;;;16.87;100.00
10060;BME280;5069;49.306;8.636;2023-04-28T12:54:47;100081.25;;;16.94;100.00
10060;BME280;5069;49.306;8.636;2023-04-28T12:57:49;100077.97;;;17.04;100.00
10060;BME280;5069;49.306;8.636;2023-04-28T13:00:50;100084.44;;;17.14;100.00
10060;BME280;5069;49.306;8.636;2023-04-28T13:03:52;100088.13;;;17.11;100.00
10060;BME280;5069;49.306;8.636;2023-04-28T13:06:54;100080.19;;;17.24;100.00
10060;BME280;5069;49.306;8.636;2023-04-28T13:09:55;100071.31;;;17.50;100.00
10060;BME280;5069;49.306;8.636;2023-04-28T13:12:56;100075.00;;;17.62;100.00
10060;BME280;5069;49.306;8.636;2023-04-28T13:15:58;100069.06;;;17.84;100.00
10060;BME280;5069;49.306;8.636;2023-04-28T13:19:00;100074.50;;;17.95;100.00
10060;BME280;5069;49.306;8.636;2023-04-28T13:22:03;100069.94;;;17.97;100.00
10060;BME280;5069;49.306;8.636;2023-04-28T13:25:07;100059.38;;;17.83;100.00
10060;BME280;5069;49.306;8.636;2023-04-28T13:28:09;100050.50;;;17.69;100.00
10060;BME280;5069;49.306;8.636;2023-04-28T13:31:10;100045.00;;;17.58;100.00
10060;BME280;5069;49.306;8.636;2023-04-28T13:34:11;100039.88;;;17.55;100.00
10060;BME280;5069;49.306;8.636;2023-04-28T13:37:17;100048.06;;;17.40;100.00
10060;BME280;5069;49.306;8.636;2023-04-28T13:40:19;100040.03;;;17.27;100.00
10060;BME280;5069;49.306;8.636;2023-04-28T13:43:20;100046.53;;;17.23;100.00
10060;BME280;5069;49.306;8.636;2023-04-28T13:46:22;100026.38;;;17.19;100.00
10060;BME280;5069;49.306;8.636;2023-04-28T13:49:23;100016.13;;;17.13;100.00
10060;BME280;5069;49.306;8.636;2023-04-28T13:52:25;100004.13;;;17.20;100.00
10060;BME280;5069;49.306;8.636;2023-04-28T13:55:27;100014.91;;;17.31;100.00
10060;BME280;5069;49.306;8.636;2023-04-28T13:58:29;100014.94;;;17.56;100.00
10060;BME280;5069;49.306;8.636;2023-04-28T14:01:30;100013.50;;;17.77;100.00
10060;BME280;5069;49.306;8.636;2023-04-28T14:04:32;100010.22;;;17.87;100.00
10060;BME280;5069;49.306;8.636;2023-04-28T14:07:34;100009.78;;;18.05;100.00
10060;BME280;5069;49.306;8.636;2023-04-28T14:10:35;100018.06;;;18.26;100.00
10060;BME280;5069;49.306;8.636;2023-04-28T14:13:37;100007.19;;;18.16;100.00
10060;BME280;5069;49.306;8.636;2023-04-28T14:16:38;100005.34;;;18.17;100.00
10060;BME280;5069;49.306;8.636;2023-04-28T14:19:40;100003.59;;;18.05;100.00
10060;BME280;5069;49.306;8.636;2023-04-28T14:22:42;99997.81;;;18.11;100.00
10060;BME280;5069;49.306;8.636;2023-04-28T14:25:44;99996.44;;;18.05;100.00
10060;BME280;5069;49.306;8.636;2023-04-28T14:28:45;99988.63;;;17.90;100.00
10060;BME280;5069;49.306;8.636;2023-04-28T14:31:47;99988.00;;;17.99;100.00
10060;BME280;5069;49.306;8.636;2023-04-28T14:34:49;99986.31;;;17.98;100.00
10060;BME280;5069;49.306;8.636;2023-04-28T14:37:51;99982.34;;;17.91;100.00
10060;BME280;5069;49.306;8.636;2023-04-28T14:40:53;99979.06;;;17.74;100.00
10060;BME280;5069;49.306;8.636;2023-04-28T14:43:55;99981.91;;;17.71;100.00
10060;BME280;5069;49.306;8.636;2023-04-28T14:46:57;99964.41;;;17.55;100.00
10060;BME280;5069;49.306;8.636;2023-04-28T14:49:58;99971.88;;;17.37;100.00
10060;BME280;5069;49.306;8.636;2023-04-28T14:53:00;99983.91;;;17.30;100.00
10060;BME280;5069;49.306;8.636;2023-04-28T14:56:06;99973.44;;;17.14;100.00
10060;BME280;5069;49.306;8.636;2023-04-28T14:59:18;99991.72;;;17.06;100.00
10060;BME280;5069;49.306;8.636;2023-04-28T15:02:20;100000.03;;;17.02;100.00
10060;BME280;5069;49.306;8.636;2023-04-28T15:05:28;99983.81;;;17.05;100.00
10060;BME280;5069;49.306;8.636;2023-04-28T15:08:31;99985.75;;;17.03;100.00
10060;BME280;5069;49.306;8.636;2023-04-28T15:11:33;99986.16;;;16.97;100.00
10060;BME280;5069;49.306;8.636;2023-04-28T15:14:34;100005.84;;;16.94;100.00
10060;BME280;5069;49.306;8.636;2023-04-28T15:17:36;100012.31;;;16.90;100.00
10060;BME280;5069;49.306;8.636;2023-04-28T15:20:38;100028.50;;;16.87;100.00
10060;BME280;5069;49.306;8.636;2023-04-28T15:23:39;100016.09;;;16.73;100.00
10060;BME280;5069;49.306;8.636;2023-04-28T15:26:41;100004.47;;;16.19;100.00
10060;BME280;5069;49.306;8.636;2023-04-28T15:29:42;100021.00;;;15.82;100.00
10060;BME280;5069;49.306;8.636;2023-04-28T15:32:44;100034.72;;;15.60;100.00
10060;BME280;5069;49.306;8.636;2023-04-28T15:35:46;100022.78;;;15.37;100.00
10060;BME280;5069;49.306;8.636;2023-04-28T15:38:47;100007.56;;;15.25;100.00
10060;BME280;5069;49.306;8.636;2023-04-28T15:41:50;100004.19;;;15.07;100.00
10060;BME280;5069;49.306;8.636;2023-04-28T15:44:52;100000.00;;;15.03;100.00
10060;BME280;5069;49.306;8.636;2023-04-28T15:47:54;100008.63;;;15.07;100.00
10060;BME280;5069;49.306;8.636;2023-04-28T15:50:56;100005.78;;;15.10;100.00
10060;BME280;5069;49.306;8.636;2023-04-28T15:53:57;99996.81;;;15.26;100.00
10060;BME280;5069;49.306;8.636;2023-04-28T15:57:00;99995.06;;;15.41;100.00
10060;BME280;5069;49.306;8.636;2023-04-28T16:00:04;99985.47;;;15.54;100.00
10060;BME280;5069;49.306;8.636;2023-04-28T16:03:08;99999.63;;;15.69;100.00
10060;BME280;5069;49.306;8.636;2023-04-28T16:06:09;100000.75;;;15.79;100.00
10060;BME280;5069;49.306;8.636;2023-04-28T16:09:11;100008.56;;;15.82;100.00
10060;BME280;5069;49.306;8.636;2023-04-28T16:12:13;100017.66;;;15.92;100.00
10060;BME280;5069;49.306;8.636;2023-04-28T16:15:15;100021.47;;;16.02;100.00
10060;BME280;5069;49.306;8.636;2023-04-28T16:18:17;100013.38;;;16.18;100.00